• Join FlightAware (Why Join?)
  • Login
  • US Flag 
12:44AM EDT


 

Airport Tracker/Info


-or-


 

Live Flight TrackerFlight Track Log ✈ N319EE ✈ 09-Oct-2013 ✈ KROC - KPWM

Flight Track Log - Related Links

Times and Time Zones

All times are in EDT time to prevent confusion due to time zone crossing. See the N319EE flight status page for this flight to view local times or setup timezone preferences in your user account.

Time Position Orientation Groundspeed Altitude Reporting Facility
EDT Latitude Longitude Course Direction KTS MPH feet Rate Location/Type
06:55AM 43.1211 -77.7203 270° West 166 191 2,000  Level Cleveland Center
06:55AM 43.1417 -77.7489 315° West 211 243 3,100 1,500 Climbing Cleveland Center
06:56AM 43.1531 -77.7492 359° North 189 217 3,400 1,620 Climbing Cleveland Center
06:57AM 43.1644 -77.7008 72° East 191 220 4,800 1,680 Climbing Cleveland Center
06:57AM 43.1639 -77.6881 93° East 179 206 5,100 1,440 Climbing Cleveland Center
06:58AM 43.1628 -77.6339 92° East 181 208 6,300 1,560 Climbing Cleveland Center
06:58AM 43.1653 -77.6189 77° East 183 211 6,700 1,620 Climbing Cleveland Center
06:59AM 43.1636 -77.5644 92° East 180 207 8,000 1,560 Climbing Cleveland Center
07:00AM 43.1789 -77.0844 90° East  Level Estimated
07:00AM 43.1642 -77.4894 89° East 190 219 9,700  Level Cleveland Center
07:01AM 43.1639 -77.4142 90° East 196 226 11,300 1,500 Climbing Cleveland Center
07:02AM 43.1639 -77.3383 90° East 199 229 12,800 1,500 Climbing Cleveland Center
07:03AM 43.1639 -77.2608 90° East 202 232 14,400 1,560 Climbing Cleveland Center
07:04AM 43.1636 -77.1697 90° East 201 231 16,000 1,440 Climbing Cleveland Center
07:05AM 43.1644 -77.0911 89° East 204 235 17,400 1,020 Climbing Cleveland Center
07:06AM 43.1636 -77.0100 91° East 210 242 18,200 900 Climbing Cleveland Center
07:07AM 43.1653 -76.9261 88° East 217 250 19,300 1,080 Climbing Cleveland Center
07:08AM 43.1647 -76.8436 91° East 218 251 20,500 780 Climbing Cleveland Center
07:09AM 43.1639 -76.7583 91° East 221 254 21,000 240 Climbing Cleveland Center
07:10AM 43.1633 -76.6592 90° East 258 297 21,000  Level Cleveland Center
07:11AM 43.1622 -76.5289 91° East 283 326 21,000  Level Cleveland Center
07:12AM 43.1614 -76.4175 91° East 292 336 21,000  Level Cleveland Center
07:13AM 43.1636 -76.3317 88° East 287 330 21,000  Level Boston Center
07:14AM 43.1650 -76.2236 89° East 287 330 21,000  Level Boston Center
07:15AM 43.1747 -76.1189 83° East 287 330 21,000  Level Boston Center
07:16AM 43.1822 -76.0111 85° East 287 330 21,000  Level Boston Center
07:17AM 43.1897 -75.9061 84° East 287 330 21,000  Level Boston Center
07:18AM 43.1969 -75.8011 85° East 282 325 21,000  Level Boston Center
07:19AM 43.2064 -75.6933 83° East 282 325 21,000  Level Boston Center
07:20AM 43.2136 -75.5883 85° East 277 319 21,000  Level Boston Center
07:21AM 43.2206 -75.4833 85° East 277 319 21,000  Level Boston Center
07:22AM 43.2297 -75.3753 83° East 272 313 21,000  Level Boston Center
07:23AM 43.2364 -75.2703 85° East 272 313 21,000  Level Boston Center
07:24AM 43.2453 -75.1622 84° East 272 313 21,000  Level Boston Center
07:25AM 43.2519 -75.0542 85° East 272 313 21,000  Level Boston Center
07:26AM 43.2608 -74.9378 84° East 272 313 21,000  Level Boston Center
07:27AM 43.2672 -74.8353 85° East 272 313 21,000  Level Boston Center
07:28AM 43.2756 -74.7300 84° East 272 313 21,000  Level Boston Center
07:29AM 43.2819 -74.6219 85° East 272 313 21,000  Level Boston Center
07:30AM 43.2900 -74.5194 84° East 272 313 21,000  Level Boston Center
07:31AM 43.2961 -74.4142 85° East 272 313 21,000  Level Boston Center
07:32AM 43.3022 -74.3089 85° East 272 313 21,000  Level Boston Center
07:33AM 43.3100 -74.2033 84° East 272 313 21,000  Level Boston Center
07:34AM 43.3158 -74.0981 86° East 272 313 21,000  Level Boston Center
07:35AM 43.3214 -73.9897 86° East 272 313 21,000  Level Boston Center
07:36AM 43.3292 -73.8844 84° East 272 313 21,000  Level Boston Center
07:37AM 43.3367 -73.7789 84° East 272 313 21,000  Level Boston Center
07:38AM 43.3397 -73.6819 87° East 272 313 21,000  Level Boston Center
07:39AM 43.3450 -73.5736 86° East 272 313 21,000  Level Boston Center
07:40AM 43.3544 -73.4708 83° East 272 313 21,000  Level Boston Center
07:41AM 43.3594 -73.3625 86° East 272 313 21,000  Level Boston Center
07:42AM 43.3686 -73.2597 83° East 272 313 21,000  Level Boston Center
07:43AM 43.3736 -73.1542 86° East 272 313 21,000  Level Boston Center
07:44AM 43.3803 -73.0458 85° East 272 313 21,000  Level Boston Center
07:45AM 43.3850 -72.9372 87° East 272 313 21,000  Level Boston Center
07:46AM 43.3917 -72.8314 85° East 272 313 21,000  Level Boston Center
07:47AM 43.3961 -72.7258 87° East 272 313 21,000  Level Boston Center
07:48AM 43.4028 -72.6172 85° East 272 313 21,000  Level Boston Center
07:49AM 43.4069 -72.5058 87° East 272 313 21,000  Level Boston Center
07:50AM 43.4133 -72.3972 85° East 272 313 21,000  Level Boston Center
07:51AM 43.4172 -72.2914 87° East 272 313 21,000  Level Boston Center
07:52AM 43.4233 -72.1800 86° East 272 313 21,000  Level Boston Center
07:53AM 43.4272 -72.0769 87° East 272 313 21,000  Level Boston Center
07:54AM 43.4311 -71.9683 87° East 272 313 21,000  Level Boston Center
07:55AM 43.4367 -71.8597 86° East 272 313 21,000 -780 Level Boston Center
07:56AM 43.4403 -71.7453 87° East 278 320 19,500 -1,560 Descending Boston Center
07:57AM 43.4458 -71.6194 86° East 307 353 18,000 -1,740 Descending Boston Center
07:58AM 43.4489 -71.5022 88° East 312 359 16,100 -1,800 Descending Boston Center
07:59AM 43.4522 -71.3906 88° East 302 348 14,400 -1,620 Descending Boston Center
08:00AM 43.4575 -71.2817 86° East 287 330 12,900 -1,500 Descending Boston Center
08:01AM 43.4625 -71.1758 86° East 282 325 11,500 -1,020 Descending Boston Center
08:02AM 43.4822 -71.0781 74° East 268 308 11,000 -420 Descending Boston Center
08:03AM 43.5061 -70.9858 70° East 251 289 10,700 -1,260 Descending Boston Center
08:04AM 43.5236 -70.8881 76° East 251 289 8,500 -2,040 Descending Boston Center
08:05AM 43.5453 -70.7903 73° East 256 295 6,700 -1,560 Descending Boston Center
08:06AM 43.5647 -70.7094 72° East 256 295 5,400 -1,200 Descending Boston Center
08:07AM 43.5797 -70.6058 79° East 245 282 4,400 -960 Descending Boston Center
08:08AM 43.5889 -70.5281 81° East 240 276 3,500 -960 Descending Boston Center
08:09AM 43.5958 -70.4361 84° East 229 264 2,500 -900 Descending Boston Center
08:10AM 43.6028 -70.3672 82° East 211 243 1,800 -840 Descending Boston Center
08:11AM 43.6081 -70.3097 83° East 158 182 900 4,500 Descending Boston Center
08:12AM 43.6369 -70.3000 14° North 102 117 11,000 5,100 Climbing Boston Center
08:13AM 43.6550 -70.2564 60° Northeast 102 117 11,000  Level Boston Center
08:15AM 43.6333 -70.3000 101° East  Level FlightAware Approximate